sensor_id;sensor_type;location;lat;lon;timestamp;temperature;humidity
17423;DHT22;8829;47.932;7.810;2024-01-16T00:00:39;-3.90;99.90
17423;DHT22;8829;47.932;7.810;2024-01-16T00:03:06;-3.90;99.90
17423;DHT22;8829;47.932;7.810;2024-01-16T00:05:33;-3.90;99.90
17423;DHT22;8829;47.932;7.810;2024-01-16T00:08:01;-3.90;99.90
17423;DHT22;8829;47.932;7.810;2024-01-16T00:10:27;-3.90;99.90
17423;DHT22;8829;47.932;7.810;2024-01-16T00:12:54;-4.00;99.90
17423;DHT22;8829;47.932;7.810;2024-01-16T00:15:21;-4.00;99.90
17423;DHT22;8829;47.932;7.810;2024-01-16T00:17:48;-4.00;99.90
17423;DHT22;8829;47.932;7.810;2024-01-16T00:20:15;-4.00;99.90
17423;DHT22;8829;47.932;7.810;2024-01-16T00:22:42;-4.00;99.90
17423;DHT22;8829;47.932;7.810;2024-01-16T00:25:10;-4.00;99.90
17423;DHT22;8829;47.932;7.810;2024-01-16T00:27:37;-4.00;99.90
17423;DHT22;8829;47.932;7.810;2024-01-16T00:30:05;-4.00;99.90
17423;DHT22;8829;47.932;7.810;2024-01-16T00:32:32;-4.00;99.90
17423;DHT22;8829;47.932;7.810;2024-01-16T00:34:58;-4.00;99.90
17423;DHT22;8829;47.932;7.810;2024-01-16T00:37:25;-4.10;99.90
17423;DHT22;8829;47.932;7.810;2024-01-16T00:39:52;-4.20;99.90
17423;DHT22;8829;47.932;7.810;2024-01-16T00:42:20;-4.20;99.90
17423;DHT22;8829;47.932;7.810;2024-01-16T00:44:47;-4.30;99.90
17423;DHT22;8829;47.932;7.810;2024-01-16T00:47:13;-4.20;99.90
17423;DHT22;8829;47.932;7.810;2024-01-16T00:49:40;-4.20;99.90
17423;DHT22;8829;47.932;7.810;2024-01-16T00:52:07;-4.10;99.90
17423;DHT22;8829;47.932;7.810;2024-01-16T00:54:34;-4.20;99.90
17423;DHT22;8829;47.932;7.810;2024-01-16T00:57:02;-4.40;99.90
17423;DHT22;8829;47.932;7.810;2024-01-16T00:59:31;-4.40;99.90
17423;DHT22;8829;47.932;7.810;2024-01-16T01:01:57;-4.40;99.90
17423;DHT22;8829;47.932;7.810;2024-01-16T01:04:24;-4.30;99.90
17423;DHT22;8829;47.932;7.810;2024-01-16T01:06:51;-4.40;99.90
17423;DHT22;8829;47.932;7.810;2024-01-16T01:09:18;-4.40;99.90
17423;DHT22;8829;47.932;7.810;2024-01-16T01:11:44;-4.40;99.90
17423;DHT22;8829;47.932;7.810;2024-01-16T01:14:11;-4.40;99.90
17423;DHT22;8829;47.932;7.810;2024-01-16T01:16:39;-4.30;99.90
17423;DHT22;8829;47.932;7.810;2024-01-16T01:19:06;-4.30;99.90
17423;DHT22;8829;47.932;7.810;2024-01-16T01:21:32;-4.30;99.90
17423;DHT22;8829;47.932;7.810;2024-01-16T01:23:59;-4.30;99.90
17423;DHT22;8829;47.932;7.810;2024-01-16T01:26:26;-4.30;99.90
17423;DHT22;8829;47.932;7.810;2024-01-16T01:28:53;-4.40;99.90
17423;DHT22;8829;47.932;7.810;2024-01-16T01:31:22;-4.40;99.90
17423;DHT22;8829;47.932;7.810;2024-01-16T01:33:50;-4.40;99.90
17423;DHT22;8829;47.932;7.810;2024-01-16T01:36:17;-4.50;99.90
17423;DHT22;8829;47.932;7.810;2024-01-16T01:38:43;-4.60;99.90
17423;DHT22;8829;47.932;7.810;2024-01-16T01:41:11;-4.70;99.90
17423;DHT22;8829;47.932;7.810;2024-01-16T01:43:38;-4.70;99.90
17423;DHT22;8829;47.932;7.810;2024-01-16T01:46:14;-4.60;99.90
17423;DHT22;8829;47.932;7.810;2024-01-16T01:48:43;-4.50;99.90
17423;DHT22;8829;47.932;7.810;2024-01-16T01:51:12;-4.50;99.90
17423;DHT22;8829;47.932;7.810;2024-01-16T01:53:41;-4.60;99.90
17423;DHT22;8829;47.932;7.810;2024-01-16T01:56:13;-4.70;99.90
17423;DHT22;8829;47.932;7.810;2024-01-16T01:58:42;-4.60;99.90
17423;DHT22;8829;47.932;7.810;2024-01-16T02:01:10;-4.60;99.90
17423;DHT22;8829;47.932;7.810;2024-01-16T02:03:40;-4.60;99.90
17423;DHT22;8829;47.932;7.810;2024-01-16T02:06:08;-4.60;99.90
17423;DHT22;8829;47.932;7.810;2024-01-16T02:08:36;-4.60;99.90
17423;DHT22;8829;47.932;7.810;2024-01-16T02:11:03;-4.60;99.90
17423;DHT22;8829;47.932;7.810;2024-01-16T02:13:31;-4.80;99.90
17423;DHT22;8829;47.932;7.810;2024-01-16T02:15:58;-4.70;99.90
17423;DHT22;8829;47.932;7.810;2024-01-16T02:18:25;-4.70;99.90
17423;DHT22;8829;47.932;7.810;2024-01-16T02:20:51;-4.60;99.90
17423;DHT22;8829;47.932;7.810;2024-01-16T02:23:26;-4.70;99.90
17423;DHT22;8829;47.932;7.810;2024-01-16T02:25:53;-4.70;99.90
17423;DHT22;8829;47.932;7.810;2024-01-16T02:28:20;-4.80;99.90
17423;DHT22;8829;47.932;7.810;2024-01-16T02:30:47;-4.90;99.90
17423;DHT22;8829;47.932;7.810;2024-01-16T02:33:13;-4.80;99.90
17423;DHT22;8829;47.932;7.810;2024-01-16T02:35:40;-4.70;99.90
17423;DHT22;8829;47.932;7.810;2024-01-16T02:38:07;-4.70;99.90
17423;DHT22;8829;47.932;7.810;2024-01-16T02:40:35;-4.60;99.90
17423;DHT22;8829;47.932;7.810;2024-01-16T02:43:01;-4.70;99.90
17423;DHT22;8829;47.932;7.810;2024-01-16T02:45:28;-4.60;99.90
17423;DHT22;8829;47.932;7.810;2024-01-16T02:47:56;-4.60;99.90
17423;DHT22;8829;47.932;7.810;2024-01-16T02:50:23;-4.60;99.90
17423;DHT22;8829;47.932;7.810;2024-01-16T02:52:49;-4.70;99.90
17423;DHT22;8829;47.932;7.810;2024-01-16T02:55:16;-4.70;99.90
17423;DHT22;8829;47.932;7.810;2024-01-16T02:57:44;-4.90;99.90
17423;DHT22;8829;47.932;7.810;2024-01-16T03:00:12;-4.90;99.90
17423;DHT22;8829;47.932;7.810;2024-01-16T03:02:39;-4.80;99.90
17423;DHT22;8829;47.932;7.810;2024-01-16T03:05:06;-4.80;99.90
17423;DHT22;8829;47.932;7.810;2024-01-16T03:07:34;-4.70;99.90
17423;DHT22;8829;47.932;7.810;2024-01-16T03:10:01;-5.00;99.90
17423;DHT22;8829;47.932;7.810;2024-01-16T03:12:27;-5.00;99.90
17423;DHT22;8829;47.932;7.810;2024-01-16T03:14:55;-4.40;99.90
17423;DHT22;8829;47.932;7.810;2024-01-16T03:17:22;-4.90;99.90
17423;DHT22;8829;47.932;7.810;2024-01-16T03:19:49;-4.80;99.90
17423;DHT22;8829;47.932;7.810;2024-01-16T03:22:16;-4.90;99.90
17423;DHT22;8829;47.932;7.810;2024-01-16T03:24:43;-4.90;99.90
17423;DHT22;8829;47.932;7.810;2024-01-16T03:27:10;-4.90;99.90
17423;DHT22;8829;47.932;7.810;2024-01-16T03:29:37;-4.80;99.90
17423;DHT22;8829;47.932;7.810;2024-01-16T03:32:06;-4.80;99.90
17423;DHT22;8829;47.932;7.810;2024-01-16T03:34:33;-4.80;99.90
17423;DHT22;8829;47.932;7.810;2024-01-16T03:37:00;-4.80;99.90
17423;DHT22;8829;47.932;7.810;2024-01-16T03:39:26;-4.80;99.90
17423;DHT22;8829;47.932;7.810;2024-01-16T03:41:52;-4.80;99.90
17423;DHT22;8829;47.932;7.810;2024-01-16T03:44:19;-4.80;99.90
17423;DHT22;8829;47.932;7.810;2024-01-16T03:46:46;-4.90;99.90
17423;DHT22;8829;47.932;7.810;2024-01-16T03:49:14;-4.90;99.90
17423;DHT22;8829;47.932;7.810;2024-01-16T03:51:40;-4.90;99.90
17423;DHT22;8829;47.932;7.810;2024-01-16T03:54:11;-4.80;99.90
17423;DHT22;8829;47.932;7.810;2024-01-16T03:56:38;-4.80;99.90
17423;DHT22;8829;47.932;7.810;2024-01-16T03:59:05;-4.80;99.90
17423;DHT22;8829;47.932;7.810;2024-01-16T04:01:32;-4.80;99.90
17423;DHT22;8829;47.932;7.810;2024-01-16T04:03:59;-4.80;99.90
17423;DHT22;8829;47.932;7.810;2024-01-16T04:06:27;-4.80;99.90
17423;DHT22;8829;47.932;7.810;2024-01-16T04:08:55;-4.80;99.90
17423;DHT22;8829;47.932;7.810;2024-01-16T04:11:22;-4.80;99.90
17423;DHT22;8829;47.932;7.810;2024-01-16T04:13:48;-4.90;99.90
17423;DHT22;8829;47.932;7.810;2024-01-16T04:16:16;-4.80;99.90
17423;DHT22;8829;47.932;7.810;2024-01-16T04:18:43;-4.80;99.90
17423;DHT22;8829;47.932;7.810;2024-01-16T04:21:10;-4.70;99.90
17423;DHT22;8829;47.932;7.810;2024-01-16T04:23:38;-4.60;99.90
17423;DHT22;8829;47.932;7.810;2024-01-16T04:26:05;-4.50;99.90
17423;DHT22;8829;47.932;7.810;2024-01-16T04:28:32;-4.60;99.90
17423;DHT22;8829;47.932;7.810;2024-01-16T04:30:59;-4.60;99.90
17423;DHT22;8829;47.932;7.810;2024-01-16T04:33:26;-4.60;99.90
17423;DHT22;8829;47.932;7.810;2024-01-16T04:35:52;-4.50;99.90
17423;DHT22;8829;47.932;7.810;2024-01-16T04:38:19;-4.50;99.90
17423;DHT22;8829;47.932;7.810;2024-01-16T04:40:47;-4.60;99.90
17423;DHT22;8829;47.932;7.810;2024-01-16T04:43:14;-4.60;99.90
17423;DHT22;8829;47.932;7.810;2024-01-16T04:45:40;-4.60;99.90
17423;DHT22;8829;47.932;7.810;2024-01-16T04:48:06;-4.60;99.90
17423;DHT22;8829;47.932;7.810;2024-01-16T04:50:34;-4.60;99.90
17423;DHT22;8829;47.932;7.810;2024-01-16T04:53:01;-4.50;99.90
17423;DHT22;8829;47.932;7.810;2024-01-16T04:55:28;-4.40;99.90
17423;DHT22;8829;47.932;7.810;2024-01-16T04:57:57;-4.40;99.90
17423;DHT22;8829;47.932;7.810;2024-01-16T05:00:25;-4.30;99.90
17423;DHT22;8829;47.932;7.810;2024-01-16T05:02:52;-4.30;99.90
17423;DHT22;8829;47.932;7.810;2024-01-16T05:05:19;-4.50;99.90
17423;DHT22;8829;47.932;7.810;2024-01-16T05:07:46;-4.70;99.90
17423;DHT22;8829;47.932;7.810;2024-01-16T05:10:13;-4.80;99.90
17423;DHT22;8829;47.932;7.810;2024-01-16T05:12:39;-4.70;99.90
17423;DHT22;8829;47.932;7.810;2024-01-16T05:15:08;-4.60;99.90
17423;DHT22;8829;47.932;7.810;2024-01-16T05:17:36;-4.60;99.90
17423;DHT22;8829;47.932;7.810;2024-01-16T05:20:04;-4.50;99.90
17423;DHT22;8829;47.932;7.810;2024-01-16T05:22:31;-4.70;99.90
17423;DHT22;8829;47.932;7.810;2024-01-16T05:24:59;-4.90;99.90
17423;DHT22;8829;47.932;7.810;2024-01-16T05:27:26;-5.00;99.90
17423;DHT22;8829;47.932;7.810;2024-01-16T05:29:54;-5.00;99.90
17423;DHT22;8829;47.932;7.810;2024-01-16T05:32:22;-4.90;99.90
17423;DHT22;8829;47.932;7.810;2024-01-16T05:34:49;-4.80;99.90
17423;DHT22;8829;47.932;7.810;2024-01-16T05:37:15;-4.80;99.90
17423;DHT22;8829;47.932;7.810;2024-01-16T05:39:42;-4.80;99.90
17423;DHT22;8829;47.932;7.810;2024-01-16T05:42:09;-4.80;99.90
17423;DHT22;8829;47.932;7.810;2024-01-16T05:44:36;-4.80;99.90
17423;DHT22;8829;47.932;7.810;2024-01-16T05:47:03;-4.80;99.90
17423;DHT22;8829;47.932;7.810;2024-01-16T05:49:32;-4.80;99.90
17423;DHT22;8829;47.932;7.810;2024-01-16T05:51:59;-4.90;99.90
17423;DHT22;8829;47.932;7.810;2024-01-16T05:54:25;-4.90;99.90
17423;DHT22;8829;47.932;7.810;2024-01-16T05:56:52;-4.90;99.90
17423;DHT22;8829;47.932;7.810;2024-01-16T05:59:19;-4.30;99.90
17423;DHT22;8829;47.932;7.810;2024-01-16T06:01:46;-5.00;99.90
17423;DHT22;8829;47.932;7.810;2024-01-16T06:04:12;-4.90;99.90
17423;DHT22;8829;47.932;7.810;2024-01-16T06:06:41;-5.00;99.90
17423;DHT22;8829;47.932;7.810;2024-01-16T06:09:10;-5.10;99.90
17423;DHT22;8829;47.932;7.810;2024-01-16T06:11:39;-5.00;99.90
17423;DHT22;8829;47.932;7.810;2024-01-16T06:14:07;-5.00;99.90
17423;DHT22;8829;47.932;7.810;2024-01-16T06:16:33;-4.90;99.90
17423;DHT22;8829;47.932;7.810;2024-01-16T06:19:00;-4.90;99.90
17423;DHT22;8829;47.932;7.810;2024-01-16T06:21:27;-5.00;99.90
17423;DHT22;8829;47.932;7.810;2024-01-16T06:23:55;-5.00;99.90
17423;DHT22;8829;47.932;7.810;2024-01-16T06:26:22;-5.00;99.90
17423;DHT22;8829;47.932;7.810;2024-01-16T06:28:48;-5.00;99.90
17423;DHT22;8829;47.932;7.810;2024-01-16T06:31:16;-5.00;99.90
17423;DHT22;8829;47.932;7.810;2024-01-16T06:33:43;-5.10;99.90
17423;DHT22;8829;47.932;7.810;2024-01-16T06:36:09;-5.20;99.90
17423;DHT22;8829;47.932;7.810;2024-01-16T06:38:38;-5.30;99.90
17423;DHT22;8829;47.932;7.810;2024-01-16T06:41:06;-5.20;99.90
17423;DHT22;8829;47.932;7.810;2024-01-16T06:43:33;-5.20;99.90
17423;DHT22;8829;47.932;7.810;2024-01-16T06:46:00;-5.30;99.90
17423;DHT22;8829;47.932;7.810;2024-01-16T06:48:27;-5.30;99.90
17423;DHT22;8829;47.932;7.810;2024-01-16T06:50:53;-5.40;99.90
17423;DHT22;8829;47.932;7.810;2024-01-16T06:53:20;-5.40;99.90
17423;DHT22;8829;47.932;7.810;2024-01-16T06:55:47;-5.30;99.90
17423;DHT22;8829;47.932;7.810;2024-01-16T06:58:16;-5.20;99.90
17423;DHT22;8829;47.932;7.810;2024-01-16T07:00:42;-5.10;99.90
17423;DHT22;8829;47.932;7.810;2024-01-16T07:03:10;-5.20;99.90
17423;DHT22;8829;47.932;7.810;2024-01-16T07:05:36;-5.20;99.90
17423;DHT22;8829;47.932;7.810;2024-01-16T07:08:03;-5.30;99.90
17423;DHT22;8829;47.932;7.810;2024-01-16T07:10:30;-5.40;99.90
17423;DHT22;8829;47.932;7.810;2024-01-16T07:12:57;-5.40;99.90
17423;DHT22;8829;47.932;7.810;2024-01-16T07:15:25;-5.40;99.90
17423;DHT22;8829;47.932;7.810;2024-01-16T07:17:51;-5.40;99.90
17423;DHT22;8829;47.932;7.810;2024-01-16T07:20:18;-5.40;99.90
17423;DHT22;8829;47.932;7.810;2024-01-16T07:22:45;-5.30;99.90
17423;DHT22;8829;47.932;7.810;2024-01-16T07:25:12;-5.30;99.90
17423;DHT22;8829;47.932;7.810;2024-01-16T07:27:39;-5.30;99.90
17423;DHT22;8829;47.932;7.810;2024-01-16T07:30:06;-5.30;99.90
17423;DHT22;8829;47.932;7.810;2024-01-16T07:32:34;-5.30;99.90
17423;DHT22;8829;47.932;7.810;2024-01-16T07:35:01;-5.30;99.90
17423;DHT22;8829;47.932;7.810;2024-01-16T07:37:28;-5.20;99.90
17423;DHT22;8829;47.932;7.810;2024-01-16T07:39:55;-5.20;99.90
17423;DHT22;8829;47.932;7.810;2024-01-16T07:42:21;-5.20;99.90
17423;DHT22;8829;47.932;7.810;2024-01-16T07:44:48;-5.20;99.90
17423;DHT22;8829;47.932;7.810;2024-01-16T07:47:15;-5.20;99.90
17423;DHT22;8829;47.932;7.810;2024-01-16T07:49:43;-5.10;99.90
17423;DHT22;8829;47.932;7.810;2024-01-16T07:52:10;-5.20;99.90
17423;DHT22;8829;47.932;7.810;2024-01-16T07:54:37;-5.20;99.90
17423;DHT22;8829;47.932;7.810;2024-01-16T07:57:04;-5.10;99.90
17423;DHT22;8829;47.932;7.810;2024-01-16T07:59:31;-5.10;99.90
17423;DHT22;8829;47.932;7.810;2024-01-16T08:01:58;-5.10;99.90
17423;DHT22;8829;47.932;7.810;2024-01-16T08:04:25;-5.00;99.90
17423;DHT22;8829;47.932;7.810;2024-01-16T08:06:54;-5.00;99.90
17423;DHT22;8829;47.932;7.810;2024-01-16T08:09:21;-5.00;99.90
17423;DHT22;8829;47.932;7.810;2024-01-16T08:11:48;-5.00;99.90
17423;DHT22;8829;47.932;7.810;2024-01-16T08:14:15;-5.00;99.90
17423;DHT22;8829;47.932;7.810;2024-01-16T08:16:41;-5.00;99.90
17423;DHT22;8829;47.932;7.810;2024-01-16T08:19:08;-4.90;99.90
17423;DHT22;8829;47.932;7.810;2024-01-16T08:21:35;-4.90;99.90
17423;DHT22;8829;47.932;7.810;2024-01-16T08:24:03;-4.90;99.90
17423;DHT22;8829;47.932;7.810;2024-01-16T08:26:30;-4.90;99.90
17423;DHT22;8829;47.932;7.810;2024-01-16T08:28:57;-4.80;99.90
17423;DHT22;8829;47.932;7.810;2024-01-16T08:31:23;-4.90;99.90
17423;DHT22;8829;47.932;7.810;2024-01-16T08:33:50;-5.20;99.90
17423;DHT22;8829;47.932;7.810;2024-01-16T08:36:17;-5.10;99.90
17423;DHT22;8829;47.932;7.810;2024-01-16T08:38:45;-5.00;99.90
17423;DHT22;8829;47.932;7.810;2024-01-16T08:41:13;-5.00;99.90
17423;DHT22;8829;47.932;7.810;2024-01-16T08:43:40;-5.00;99.90
17423;DHT22;8829;47.932;7.810;2024-01-16T08:46:07;-5.00;99.90
17423;DHT22;8829;47.932;7.810;2024-01-16T08:48:33;-4.90;99.90
17423;DHT22;8829;47.932;7.810;2024-01-16T08:51:00;-4.80;99.90
17423;DHT22;8829;47.932;7.810;2024-01-16T08:53:27;-4.80;99.90
17423;DHT22;8829;47.932;7.810;2024-01-16T08:55:53;-4.70;99.90
17423;DHT22;8829;47.932;7.810;2024-01-16T08:58:21;-4.60;99.90
17423;DHT22;8829;47.932;7.810;2024-01-16T09:00:48;-4.60;99.90
17423;DHT22;8829;47.932;7.810;2024-01-16T09:03:15;-4.50;99.90
17423;DHT22;8829;47.932;7.810;2024-01-16T09:05:43;-4.50;99.90
17423;DHT22;8829;47.932;7.810;2024-01-16T09:08:09;-4.50;99.90
17423;DHT22;8829;47.932;7.810;2024-01-16T09:10:37;-4.50;99.90
17423;DHT22;8829;47.932;7.810;2024-01-16T09:13:04;-4.50;99.90
17423;DHT22;8829;47.932;7.810;2024-01-16T09:15:32;-4.50;99.90
17423;DHT22;8829;47.932;7.810;2024-01-16T09:18:00;-4.50;99.90
17423;DHT22;8829;47.932;7.810;2024-01-16T09:20:27;-4.50;99.90
17423;DHT22;8829;47.932;7.810;2024-01-16T09:22:53;-4.50;99.90
17423;DHT22;8829;47.932;7.810;2024-01-16T09:25:20;-4.40;99.90
17423;DHT22;8829;47.932;7.810;2024-01-16T09:27:49;-4.40;99.90
17423;DHT22;8829;47.932;7.810;2024-01-16T09:30:18;-4.40;99.90
17423;DHT22;8829;47.932;7.810;2024-01-16T09:32:48;-4.40;99.90
17423;DHT22;8829;47.932;7.810;2024-01-16T09:35:15;-4.30;99.90
17423;DHT22;8829;47.932;7.810;2024-01-16T09:37:41;-4.30;99.90
17423;DHT22;8829;47.932;7.810;2024-01-16T09:40:09;-4.30;99.90
17423;DHT22;8829;47.932;7.810;2024-01-16T09:42:36;-4.20;99.90
17423;DHT22;8829;47.932;7.810;2024-01-16T09:45:04;-4.20;99.90
17423;DHT22;8829;47.932;7.810;2024-01-16T09:47:31;-4.20;99.90
17423;DHT22;8829;47.932;7.810;2024-01-16T09:50:02;-4.20;99.90
17423;DHT22;8829;47.932;7.810;2024-01-16T09:52:29;-4.10;99.90
17423;DHT22;8829;47.932;7.810;2024-01-16T09:54:56;-4.00;99.90
17423;DHT22;8829;47.932;7.810;2024-01-16T09:57:25;-4.00;99.90
17423;DHT22;8829;47.932;7.810;2024-01-16T09:59:52;-3.90;99.90
17423;DHT22;8829;47.932;7.810;2024-01-16T10:02:20;-3.80;99.90
17423;DHT22;8829;47.932;7.810;2024-01-16T10:04:48;-3.70;99.90
17423;DHT22;8829;47.932;7.810;2024-01-16T10:07:17;-3.70;99.90
17423;DHT22;8829;47.932;7.810;2024-01-16T10:09:45;-3.70;99.90
17423;DHT22;8829;47.932;7.810;2024-01-16T10:12:11;-3.50;99.90
17423;DHT22;8829;47.932;7.810;2024-01-16T10:14:39;-3.40;99.90
17423;DHT22;8829;47.932;7.810;2024-01-16T10:17:06;-3.30;99.90
17423;DHT22;8829;47.932;7.810;2024-01-16T10:19:47;-3.20;99.90
17423;DHT22;8829;47.932;7.810;2024-01-16T10:22:21;-3.10;99.90
17423;DHT22;8829;47.932;7.810;2024-01-16T10:24:50;-3.00;99.90
17423;DHT22;8829;47.932;7.810;2024-01-16T10:27:17;-2.80;99.90
17423;DHT22;8829;47.932;7.810;2024-01-16T10:29:54;-2.50;99.90
17423;DHT22;8829;47.932;7.810;2024-01-16T10:32:29;-2.30;99.90
17423;DHT22;8829;47.932;7.810;2024-01-16T10:35:03;-2.30;99.90
17423;DHT22;8829;47.932;7.810;2024-01-16T10:37:40;-2.30;99.90
17423;DHT22;8829;47.932;7.810;2024-01-16T10:40:08;-2.30;99.90
17423;DHT22;8829;47.932;7.810;2024-01-16T10:42:35;-2.20;99.90
17423;DHT22;8829;47.932;7.810;2024-01-16T10:45:02;-2.20;99.90
17423;DHT22;8829;47.932;7.810;2024-01-16T10:47:29;-2.10;99.90
17423;DHT22;8829;47.932;7.810;2024-01-16T10:49:56;-2.20;99.90
17423;DHT22;8829;47.932;7.810;2024-01-16T10:52:27;-2.30;99.90
17423;DHT22;8829;47.932;7.810;2024-01-16T10:54:57;-2.30;99.90
17423;DHT22;8829;47.932;7.810;2024-01-16T10:57:26;-2.30;99.90
17423;DHT22;8829;47.932;7.810;2024-01-16T11:00:01;-2.20;99.90
17423;DHT22;8829;47.932;7.810;2024-01-16T11:02:34;-2.20;99.90
17423;DHT22;8829;47.932;7.810;2024-01-16T11:05:03;-2.30;99.90
17423;DHT22;8829;47.932;7.810;2024-01-16T11:07:32;-2.30;99.90
17423;DHT22;8829;47.932;7.810;2024-01-16T11:10:02;-2.20;99.90
17423;DHT22;8829;47.932;7.810;2024-01-16T11:12:29;-2.10;99.90
17423;DHT22;8829;47.932;7.810;2024-01-16T11:15:00;-2.00;99.90
17423;DHT22;8829;47.932;7.810;2024-01-16T11:17:28;-1.90;99.90
17423;DHT22;8829;47.932;7.810;2024-01-16T11:19:57;-1.80;99.90
17423;DHT22;8829;47.932;7.810;2024-01-16T11:22:24;-1.90;99.90
17423;DHT22;8829;47.932;7.810;2024-01-16T11:25:09;-2.00;99.90
17423;DHT22;8829;47.932;7.810;2024-01-16T11:27:36;-2.10;99.90
17423;DHT22;8829;47.932;7.810;2024-01-16T11:30:03;-2.10;99.90
17423;DHT22;8829;47.932;7.810;2024-01-16T11:32:34;-2.10;99.90
17423;DHT22;8829;47.932;7.810;2024-01-16T11:35:02;-2.20;99.90
17423;DHT22;8829;47.932;7.810;2024-01-16T11:37:30;-2.20;99.90
17423;DHT22;8829;47.932;7.810;2024-01-16T11:40:22;-2.20;99.90
17423;DHT22;8829;47.932;7.810;2024-01-16T11:42:50;-2.20;99.90
17423;DHT22;8829;47.932;7.810;2024-01-16T11:45:48;-2.20;99.90
17423;DHT22;8829;47.932;7.810;2024-01-16T11:48:17;-2.10;99.90
17423;DHT22;8829;47.932;7.810;2024-01-16T11:50:45;-2.00;99.90
17423;DHT22;8829;47.932;7.810;2024-01-16T11:53:33;-2.00;99.90
17423;DHT22;8829;47.932;7.810;2024-01-16T11:56:13;-1.90;99.90
17423;DHT22;8829;47.932;7.810;2024-01-16T11:58:48;-1.80;99.90
17423;DHT22;8829;47.932;7.810;2024-01-16T12:01:21;-1.80;99.90
17423;DHT22;8829;47.932;7.810;2024-01-16T12:04:01;-1.80;99.90
17423;DHT22;8829;47.932;7.810;2024-01-16T12:06:28;-1.90;99.90
17423;DHT22;8829;47.932;7.810;2024-01-16T12:09:10;-1.80;99.90
17423;DHT22;8829;47.932;7.810;2024-01-16T12:11:39;-1.80;99.90
17423;DHT22;8829;47.932;7.810;2024-01-16T12:14:06;-1.60;99.90
17423;DHT22;8829;47.932;7.810;2024-01-16T12:16:32;-1.50;99.90
17423;DHT22;8829;47.932;7.810;2024-01-16T12:19:06;-1.50;99.90
17423;DHT22;8829;47.932;7.810;2024-01-16T12:21:34;-1.40;99.90
17423;DHT22;8829;47.932;7.810;2024-01-16T12:24:01;-1.30;99.90
17423;DHT22;8829;47.932;7.810;2024-01-16T12:26:29;-1.20;99.90
17423;DHT22;8829;47.932;7.810;2024-01-16T12:28:57;-1.20;99.90
17423;DHT22;8829;47.932;7.810;2024-01-16T12:31:25;-1.20;99.90
17423;DHT22;8829;47.932;7.810;2024-01-16T12:33:51;-1.20;99.90
17423;DHT22;8829;47.932;7.810;2024-01-16T12:36:18;-1.10;99.90
17423;DHT22;8829;47.932;7.810;2024-01-16T12:38:45;-1.10;99.90
17423;DHT22;8829;47.932;7.810;2024-01-16T12:41:20;-1.10;99.90
17423;DHT22;8829;47.932;7.810;2024-01-16T12:43:49;-1.00;99.90
17423;DHT22;8829;47.932;7.810;2024-01-16T12:46:17;-0.90;99.90
17423;DHT22;8829;47.932;7.810;2024-01-16T12:48:44;-1.00;99.90
17423;DHT22;8829;47.932;7.810;2024-01-16T12:51:16;-0.90;99.90
17423;DHT22;8829;47.932;7.810;2024-01-16T12:53:46;-0.90;99.90
17423;DHT22;8829;47.932;7.810;2024-01-16T12:56:17;-0.90;99.90
17423;DHT22;8829;47.932;7.810;2024-01-16T12:58:44;-1.00;99.90
17423;DHT22;8829;47.932;7.810;2024-01-16T13:01:26;-1.00;99.90
17423;DHT22;8829;47.932;7.810;2024-01-16T13:03:54;-1.00;99.90
17423;DHT22;8829;47.932;7.810;2024-01-16T13:06:22;-1.00;99.90
17423;DHT22;8829;47.932;7.810;2024-01-16T13:08:49;-0.90;99.90
17423;DHT22;8829;47.932;7.810;2024-01-16T13:11:17;-0.90;99.90
17423;DHT22;8829;47.932;7.810;2024-01-16T13:13:46;-0.90;99.90
17423;DHT22;8829;47.932;7.810;2024-01-16T13:16:14;-0.80;99.90
17423;DHT22;8829;47.932;7.810;2024-01-16T13:18:43;-0.80;99.90
17423;DHT22;8829;47.932;7.810;2024-01-16T13:21:10;-0.70;99.90
17423;DHT22;8829;47.932;7.810;2024-01-16T13:23:36;-0.60;99.90
17423;DHT22;8829;47.932;7.810;2024-01-16T13:26:03;-0.50;99.90
17423;DHT22;8829;47.932;7.810;2024-01-16T13:28:32;-0.50;99.90
17423;DHT22;8829;47.932;7.810;2024-01-16T13:31:00;-0.40;99.90
17423;DHT22;8829;47.932;7.810;2024-01-16T13:33:29;-0.30;99.90
17423;DHT22;8829;47.932;7.810;2024-01-16T13:35:58;-0.30;99.90
17423;DHT22;8829;47.932;7.810;2024-01-16T13:38:25;-0.30;99.90
17423;DHT22;8829;47.932;7.810;2024-01-16T13:40:52;-0.30;99.90
17423;DHT22;8829;47.932;7.810;2024-01-16T13:43:19;-0.30;99.90
17423;DHT22;8829;47.932;7.810;2024-01-16T13:45:46;-0.30;99.90
17423;DHT22;8829;47.932;7.810;2024-01-16T13:48:15;-0.30;99.90
17423;DHT22;8829;47.932;7.810;2024-01-16T13:50:42;-0.30;99.90
17423;DHT22;8829;47.932;7.810;2024-01-16T13:53:11;-0.40;99.90
17423;DHT22;8829;47.932;7.810;2024-01-16T13:55:39;-0.40;99.90
17423;DHT22;8829;47.932;7.810;2024-01-16T13:58:06;-0.40;99.90
17423;DHT22;8829;47.932;7.810;2024-01-16T14:00:33;-0.30;99.90
17423;DHT22;8829;47.932;7.810;2024-01-16T14:03:00;-0.30;99.90
17423;DHT22;8829;47.932;7.810;2024-01-16T14:05:28;-0.40;99.90
17423;DHT22;8829;47.932;7.810;2024-01-16T14:10:24;-0.10;99.90
17423;DHT22;8829;47.932;7.810;2024-01-16T14:12:51;-0.30;99.90
17423;DHT22;8829;47.932;7.810;2024-01-16T14:15:20;-0.20;99.90
17423;DHT22;8829;47.932;7.810;2024-01-16T14:17:49;-0.40;99.90
17423;DHT22;8829;47.932;7.810;2024-01-16T14:20:17;-0.40;99.90
17423;DHT22;8829;47.932;7.810;2024-01-16T14:22:47;-0.50;99.90
17423;DHT22;8829;47.932;7.810;2024-01-16T14:25:14;-0.50;99.90
17423;DHT22;8829;47.932;7.810;2024-01-16T14:27:47;-0.60;99.90
17423;DHT22;8829;47.932;7.810;2024-01-16T14:30:15;-0.70;99.90
17423;DHT22;8829;47.932;7.810;2024-01-16T14:32:43;-0.70;99.90
17423;DHT22;8829;47.932;7.810;2024-01-16T14:35:12;-0.80;99.90
17423;DHT22;8829;47.932;7.810;2024-01-16T14:37:39;-0.80;99.90
17423;DHT22;8829;47.932;7.810;2024-01-16T14:40:07;-0.80;99.90
17423;DHT22;8829;47.932;7.810;2024-01-16T14:42:38;-0.90;99.90
17423;DHT22;8829;47.932;7.810;2024-01-16T14:45:07;-1.10;99.90
17423;DHT22;8829;47.932;7.810;2024-01-16T14:47:37;-1.20;99.90
17423;DHT22;8829;47.932;7.810;2024-01-16T14:50:04;-1.10;99.90
17423;DHT22;8829;47.932;7.810;2024-01-16T14:52:31;-1.10;99.90
17423;DHT22;8829;47.932;7.810;2024-01-16T14:54:58;-1.10;99.90
17423;DHT22;8829;47.932;7.810;2024-01-16T14:57:25;-1.10;99.90
17423;DHT22;8829;47.932;7.810;2024-01-16T14:59:52;-1.20;99.90
17423;DHT22;8829;47.932;7.810;2024-01-16T15:02:20;-1.20;99.90
17423;DHT22;8829;47.932;7.810;2024-01-16T15:04:48;-1.20;99.90
17423;DHT22;8829;47.932;7.810;2024-01-16T15:07:14;-1.20;99.90
17423;DHT22;8829;47.932;7.810;2024-01-16T15:09:41;-1.30;99.90
17423;DHT22;8829;47.932;7.810;2024-01-16T15:12:08;-1.30;99.90
17423;DHT22;8829;47.932;7.810;2024-01-16T15:14:36;-1.40;99.90
17423;DHT22;8829;47.932;7.810;2024-01-16T15:17:03;-1.40;99.90
17423;DHT22;8829;47.932;7.810;2024-01-16T15:19:31;-1.50;99.90
17423;DHT22;8829;47.932;7.810;2024-01-16T15:21:58;-1.50;99.90
17423;DHT22;8829;47.932;7.810;2024-01-16T15:24:24;-1.60;99.90
17423;DHT22;8829;47.932;7.810;2024-01-16T15:26:54;-1.70;99.90
17423;DHT22;8829;47.932;7.810;2024-01-16T15:29:21;-1.80;99.90
17423;DHT22;8829;47.932;7.810;2024-01-16T15:31:48;-1.90;99.90
17423;DHT22;8829;47.932;7.810;2024-01-16T15:34:14;-2.00;99.90
17423;DHT22;8829;47.932;7.810;2024-01-16T15:36:44;-2.10;99.90
17423;DHT22;8829;47.932;7.810;2024-01-16T15:39:12;-2.10;99.90
17423;DHT22;8829;47.932;7.810;2024-01-16T15:41:41;-2.20;99.90
17423;DHT22;8829;47.932;7.810;2024-01-16T15:44:08;-2.30;99.90
17423;DHT22;8829;47.932;7.810;2024-01-16T15:49:17;-2.40;99.90
17423;DHT22;8829;47.932;7.810;2024-01-16T15:51:45;-2.50;99.90
17423;DHT22;8829;47.932;7.810;2024-01-16T15:54:12;-2.60;99.90